Nearby METAR Reports

 

EGNM - Leeds And Bradford, United Kingdom
Distance from station: N 11mi, 18km
Updated: 26/04/2019 02:20
Clear
Clear
 Wind from SSE
Wind: SSE 7 mph , 11 km/h
Temperature: 4°C
Wind Chill: 1°C
Dew Point: 4°C
Humidity: 100%
Barometer: 1003 hPa
Summary: Clear
Visibility: greater than 7 miles , 10 km
2019/04/26 02:20 EGNM 260220Z 16006KT CAVOK 04/04 Q1003
EGXU - Linton-On-Ouse, United Kingdom
Distance from station: NNE 28mi, 45km
Updated: 26/04/2019 01:50
Clear
Clear
 Wind from S
Wind: S 6 mph , 9 km/h
Temperature: 6°C
Wind Chill: 4°C
Dew Point: 5°C
Humidity: 93%
Barometer: 1003 hPa
Clouds: Clear
Visibility: 6 miles , 9 km
2019/04/26 01:50 EGXU 260150Z AUTO 17005KT 9000 // NCD 06/05 Q1003
 
EGCN - Doncaster Sheffield, United Kingdom
Distance from station: ESE 30mi, 45km
Updated: 26/04/2019 02:20
Clear
Clear
 Wind from S
Wind: S 7 mph , 11 km/h
Temperature: 5°C
Wind Chill: 2°C
Dew Point: 5°C
Humidity: 100%
Barometer: 1005 hPa
Clouds: Clear
Visibility: 6 miles , 10 km
2019/04/26 02:20 EGCN 260220Z AUTO 17006KT 9999 NCD 05/05 Q1005
EGXZ - Topcliffe RAF, United Kingdom
Distance from station: NNE 36mi, 57km
Updated: 26/04/2019 01:50
Mist, Clear
Mist, Clear
 Wind from SSE
Wind: SSE 8 mph , 13 km/h
Temperature: 4°C
Wind Chill: 1°C
Dew Point: 3°C
Humidity: 93%
Barometer: 1003 hPa
Summary: Mist
Clouds: Clear
Visibility: 5 miles , 8 km
2019/04/26 01:50 EGXZ 260150Z AUTO 15007KT 8000 BR NCD 04/03 Q1003
 
EGCC - Manchester Intl, United Kingdom
Distance from station: SW 36mi, 58km
Updated: 26/04/2019 02:20
Clear
Clear
 Wind from varies
Wind: varies 3 mph , 6 km/h
Temperature: 7°C
Dew Point: 5°C
Humidity: 87%
Barometer: 1003 hPa
Clouds: Clear
Visibility: 6 miles , 10 km
2019/04/26 02:20 EGCC 260220Z AUTO VRB03KT 9999 NCD 07/05 Q1003 NOSIG
EGXE - Leeming RAF, United Kingdom
Distance from station: N 40mi, 65km
Updated: 26/04/2019 01:50
Mist, Clear
Mist, Clear
 Wind from SE
Wind: SE 8 mph , 13 km/h
Temperature: 5°C
Wind Chill: 2°C
Dew Point: 5°C
Humidity: 100%
Barometer: 1003 hPa
Summary: Mist
Clouds: Clear
Visibility: 6 miles , 9 km
2019/04/26 01:50 EGXE 260150Z AUTO 13007KT 9000 BR NCD 05/05 Q1003